Time;durP1;ratioP1;P1;durP2;ratioP2;P2;SDS_P1;SDS_P2;PMS_P1;PMS_P2;Temp;Humidity;BMP_temperature;BMP_pressure;BME280_temperature;BME280_humidity;BME280_pressure;Samples;Min_cycle;Max_cycle;Signal;HPM_P1;HPM_P2
2023/04/02 00:00:13;;;;;;;12.38;8.10;;;5.80;99.90;;;;;;5071924;28;20048;-63
2023/04/02 00:02:59;;;;;;;13.40;7.75;;;5.80;99.90;;;;;;5072441;28;20101;-63
2023/04/02 00:05:29;;;;;;;8.90;6.25;;;5.80;99.90;;;;;;5072078;28;20084;-62
2023/04/02 00:07:59;;;;;;;9.90;6.93;;;5.70;99.90;;;;;;5069514;28;20468;-63
2023/04/02 00:10:56;;;;;;;8.93;7.05;;;5.70;99.90;;;;;;5069712;28;20210;-63
2023/04/02 00:13:29;;;;;;;10.88;8.63;;;5.60;99.90;;;;;;5072119;28;20056;-63
2023/04/02 00:15:58;;;;;;;11.60;6.95;;;5.60;99.90;;;;;;5072088;28;20102;-64
2023/04/02 00:18:25;;;;;;;11.27;6.50;;;5.50;99.90;;;;;;5072280;28;20397;-62
2023/04/02 00:20:59;;;;;;;10.35;7.18;;;5.50;99.90;;;;;;5053828;28;20106;-63
2023/04/02 00:23:27;;;;;;;9.90;6.05;;;5.50;99.90;;;;;;5071671;28;20037;-63
2023/04/02 00:25:53;;;;;;;11.15;7.25;;;5.50;99.90;;;;;;5085847;28;20055;-62
2023/04/02 00:28:22;;;;;;;10.07;6.93;;;5.50;99.90;;;;;;5092332;28;20106;-64
2023/04/02 00:30:52;;;;;;;10.35;7.13;;;5.40;99.90;;;;;;5091448;28;20075;-63
2023/04/02 00:33:30;;;;;;;9.60;6.25;;;5.50;99.90;;;;;;5092175;28;20055;-63
2023/04/02 00:35:56;;;;;;;8.88;6.72;;;5.40;99.90;;;;;;5092213;28;20109;-63
2023/04/02 00:38:29;;;;;;;10.82;6.35;;;5.40;99.90;;;;;;5092017;28;20113;-63
2023/04/02 00:41:05;;;;;;;10.00;6.80;;;5.40;99.90;;;;;;5091616;28;20055;-63
2023/04/02 00:43:36;;;;;;;11.38;7.53;;;5.40;99.90;;;;;;5092102;28;20092;-63
2023/04/02 00:46:09;;;;;;;8.50;6.30;;;5.40;99.90;;;;;;5074263;28;20214;-63
2023/04/02 00:49:00;;;;;;;8.70;6.63;;;5.40;99.90;;;;;;5091944;28;20084;-63
2023/04/02 00:51:50;;;;;;;9.50;6.47;;;5.40;99.90;;;;;;5090966;28;20494;-64
2023/04/02 00:54:22;;;;;;;10.02;6.88;;;5.40;99.90;;;;;;5091422;28;20054;-63
2023/04/02 00:56:51;;;;;;;;;;;5.40;99.90;;;;;;5092440;28;20052;-64
2023/04/02 00:59:19;;;;;;;10.73;6.60;;;5.30;99.90;;;;;;5074111;28;19985;-62
2023/04/02 01:01:55;;;;;;;9.82;8.70;;;5.20;99.90;;;;;;5090976;28;20048;-63
2023/04/02 01:04:33;;;;;;;10.57;6.53;;;5.30;99.90;;;;;;5092102;28;20044;-63
2023/04/02 01:07:05;;;;;;;8.75;6.60;;;5.30;99.90;;;;;;5091780;28;20048;-63
2023/04/02 01:09:54;;;;;;;7.82;6.00;;;5.20;99.90;;;;;;5074102;28;20051;-63
2023/04/02 01:12:38;;;;;;;11.52;6.03;;;5.20;99.90;;;;;;5091594;28;20056;-64
2023/04/02 01:15:12;;;;;;;;;;;5.20;99.90;;;;;;5092322;28;20430;-63
2023/04/02 01:18:17;;;;;;;9.48;6.47;;;5.10;99.90;;;;;;5091297;28;19920;-62
2023/04/02 01:21:02;;;;;;;7.70;6.32;;;5.10;99.90;;;;;;5091277;28;20440;-63
2023/04/02 01:24:00;;;;;;;7.57;5.90;;;5.10;99.90;;;;;;5073552;28;20036;-63
2023/04/02 01:26:43;;;;;;;8.82;6.30;;;5.10;99.90;;;;;;5092953;28;20048;-62
2023/04/02 01:29:19;;;;;;;8.65;5.97;;;5.10;99.90;;;;;;5077594;28;20044;-63
2023/04/02 01:31:47;;;;;;;8.95;7.15;;;5.00;99.90;;;;;;5092438;28;20055;-64
2023/04/02 01:34:23;;;;;;;9.90;6.20;;;5.00;99.90;;;;;;5095868;28;20093;-62
2023/04/02 01:37:05;;;;;;;8.80;6.10;;;5.00;99.90;;;;;;5095376;28;20048;-63
2023/04/02 01:40:04;;;;;;;8.18;6.10;;;5.00;99.90;;;;;;5095318;28;20117;-63
2023/04/02 01:42:53;;;;;;;8.85;5.78;;;5.00;99.90;;;;;;5031239;28;20063;-63
2023/04/02 01:45:21;;;;;;;8.57;5.50;;;4.90;99.90;;;;;;5075064;28;20468;-62
2023/04/02 01:47:49;;;;;;;7.10;5.63;;;5.00;99.90;;;;;;5057198;28;20061;-63
2023/04/02 01:50:32;;;;;;;6.93;6.20;;;5.00;99.90;;;;;;5077600;28;20056;-63
2023/04/02 01:53:10;;;;;;;8.00;5.57;;;4.90;99.90;;;;;;5057586;28;20062;-63
2023/04/02 01:55:49;;;;;;;6.97;5.03;;;4.90;99.90;;;;;;5094777;28;20185;-64
2023/04/02 01:58:28;;;;;;;7.68;5.47;;;4.80;99.90;;;;;;5095294;28;20047;-62
2023/04/02 02:01:06;;;;;;;8.00;5.10;;;4.80;99.90;;;;;;5094244;28;20079;-63
2023/04/02 02:03:34;;;;;;;8.43;5.13;;;4.70;99.90;;;;;;5095139;28;20167;-63
2023/04/02 02:06:04;;;;;;;5.75;4.55;;;4.70;99.90;;;;;;5095014;28;20132;-63
2023/04/02 02:08:48;;;;;;;8.27;5.05;;;4.70;99.90;;;;;;5095040;28;20490;-63
2023/04/02 02:11:18;;;;;;;6.15;5.00;;;4.60;99.90;;;;;;5093771;28;20679;-63
2023/04/02 02:14:00;;;;;;;7.22;5.03;;;4.60;99.90;;;;;;5095142;28;20048;-63
2023/04/02 02:16:40;;;;;;;8.07;4.70;;;4.60;99.90;;;;;;5094723;28;20147;-63
2023/04/02 02:19:23;;;;;;;7.20;5.53;;;4.60;99.90;;;;;;5094712;28;20083;-61
2023/04/02 02:22:20;;;;;;;8.63;5.78;;;4.50;99.90;;;;;;5093886;28;20040;-64
2023/04/02 02:24:47;;;;;;;7.28;4.80;;;4.40;99.90;;;;;;5091231;28;20088;-63
2023/04/02 02:27:25;;;;;;;6.45;5.38;;;4.30;99.90;;;;;;5074756;28;20044;-62
2023/04/02 02:30:11;;;;;;;8.82;5.70;;;4.20;99.90;;;;;;5074138;28;20048;-62
2023/04/02 02:32:48;;;;;;;6.82;5.30;;;4.10;99.90;;;;;;5054113;28;20064;-63
2023/04/02 02:35:22;;;;;;;9.10;4.80;;;4.00;99.90;;;;;;5054447;28;20056;-64
2023/04/02 02:38:01;;;;;;;6.13;4.53;;;4.00;99.90;;;;;;5053105;28;20052;-63
2023/04/02 02:40:35;;;;;;;8.00;4.78;;;3.90;99.90;;;;;;5067292;28;20040;-64
2023/04/02 02:43:06;;;;;;;6.38;4.28;;;3.70;99.90;;;;;;5074492;28;20044;-63
2023/04/02 02:45:37;;;;;;;9.80;4.40;;;3.70;99.90;;;;;;5056071;28;20080;-64
2023/04/02 02:48:10;;;;;;;9.25;4.43;;;3.60;99.90;;;;;;5074082;28;20436;-64
2023/04/02 02:50:37;;;;;;;8.05;4.32;;;3.60;99.90;;;;;;5073372;28;20067;-64
2023/04/02 02:53:21;;;;;;;7.13;4.28;;;3.50;99.90;;;;;;5056291;28;20044;-64
2023/04/02 02:55:55;;;;;;;9.35;4.40;;;3.40;99.90;;;;;;5073842;28;20349;-64
2023/04/02 02:58:31;;;;;;;6.40;3.75;;;3.40;99.90;;;;;;5073911;28;20075;-64
2023/04/02 03:00:58;;;;;;;9.30;4.88;;;3.30;99.90;;;;;;5072845;28;20445;-64
2023/04/02 03:03:35;;;;;;;5.55;3.78;;;3.30;99.90;;;;;;5073368;28;20076;-64
2023/04/02 03:06:08;;;;;;;5.97;3.55;;;3.20;99.90;;;;;;5073579;28;20361;-63
2023/04/02 03:09:05;;;;;;;7.65;4.95;;;3.20;99.90;;;;;;5073865;28;20171;-64
2023/04/02 03:11:56;;;;;;;7.75;4.20;;;3.10;99.90;;;;;;5065550;28;20523;-63
2023/04/02 03:14:55;;;;;;;7.03;3.72;;;3.10;99.90;;;;;;5073218;28;20506;-63
2023/04/02 03:17:40;;;;;;;7.15;3.65;;;3.00;99.90;;;;;;5050751;28;20067;-63
2023/04/02 03:20:21;;;;;;;8.23;3.63;;;2.90;99.90;;;;;;5072640;28;20133;-64
2023/04/02 03:22:57;;;;;;;6.38;4.10;;;2.90;99.90;;;;;;5073218;28;20079;-63
2023/04/02 03:25:47;;;;;;;4.93;3.60;;;2.90;99.90;;;;;;5063259;28;20071;-63
2023/04/02 03:28:18;;;;;;;7.18;3.63;;;2.80;99.90;;;;;;5093773;28;20043;-63
2023/04/02 03:31:12;;;;;;;8.48;4.65;;;2.70;99.90;;;;;;5092714;28;20048;-63
2023/04/02 03:33:53;;;;;;;5.85;3.65;;;2.70;99.90;;;;;;5093269;28;20424;-64
2023/04/02 03:36:27;;;;;;;5.15;4.32;;;2.70;99.90;;;;;;5076775;28;20040;-63
2023/04/02 03:39:17;;;;;;;6.10;3.95;;;2.60;99.90;;;;;;5093208;28;20043;-64
2023/04/02 03:41:47;;;;;;;;;;;2.60;99.90;;;;;;5093196;28;20083;-62
2023/04/02 03:44:38;;;;;;;5.78;3.67;;;2.50;99.90;;;;;;5093356;28;20302;-63
2023/04/02 03:47:22;;;;;;;6.28;4.28;;;2.50;99.90;;;;;;5093029;28;20079;-64
2023/04/02 03:49:51;;;;;;;;;;;2.50;99.90;;;;;;5092653;28;20086;-63
2023/04/02 03:52:26;;;;;;;6.93;3.72;;;2.40;99.90;;;;;;5074678;28;19936;-63
2023/04/02 03:54:57;;;;;;;7.78;4.22;;;2.40;99.90;;;;;;5093390;28;20075;-63
2023/04/02 03:57:37;;;;;;;7.07;4.35;;;2.40;99.90;;;;;;5093094;28;20060;-63
2023/04/02 04:00:17;;;;;;;8.50;4.32;;;2.30;99.90;;;;;;5092459;28;20048;-63
2023/04/02 04:02:53;;;;;;;8.38;4.15;;;2.30;99.90;;;;;;5092789;28;20141;-62
2023/04/02 04:05:31;;;;;;;7.57;3.90;;;2.30;99.90;;;;;;5092862;28;20043;-63
2023/04/02 04:08:06;;;;;;;6.65;3.90;;;2.20;99.90;;;;;;5092707;28;20075;-64
2023/04/02 04:10:40;;;;;;;6.88;3.60;;;2.10;99.90;;;;;;5091826;28;20048;-63
2023/04/02 04:13:13;;;;;;;6.18;4.40;;;2.10;99.90;;;;;;5092474;28;20048;-63
2023/04/02 04:15:58;;;;;;;7.13;3.90;;;2.10;99.90;;;;;;5092419;28;20040;-64
2023/04/02 04:18:42;;;;;;;5.13;4.13;;;2.20;99.90;;;;;;5092637;28;20048;-64
2023/04/02 04:21:28;;;;;;;6.72;3.40;;;2.10;99.90;;;;;;5091802;28;20164;-63
2023/04/02 04:24:21;;;;;;;5.95;3.60;;;2.20;99.90;;;;;;5092671;28;20075;-64
2023/04/02 04:27:08;;;;;;;7.25;4.25;;;2.20;99.90;;;;;;5092023;28;20112;-62
2023/04/02 04:30:02;;;;;;;6.68;4.63;;;2.20;99.90;;;;;;5091586;28;20093;-63
2023/04/02 04:33:02;;;;;;;5.07;4.25;;;2.30;99.90;;;;;;5092142;28;20047;-63
2023/04/02 04:35:36;;;;;;;7.28;4.00;;;2.30;99.90;;;;;;5077098;28;20048;-63
2023/04/02 04:38:26;;;;;;;6.05;3.92;;;2.30;99.90;;;;;;5092252;28;20126;-63
2023/04/02 04:40:55;;;;;;;;;;;2.30;99.90;;;;;;5073579;28;20483;-63
2023/04/02 04:43:37;;;;;;;5.75;3.72;;;2.30;99.90;;;;;;5057783;28;19924;-63
2023/04/02 04:46:34;;;;;;;5.72;3.22;;;2.30;99.90;;;;;;5073939;28;20109;-63
2023/04/02 04:49:03;;;;;;;6.78;3.50;;;2.30;99.90;;;;;;5092114;28;20044;-63
2023/04/02 04:51:52;;;;;;;7.72;3.95;;;2.30;99.90;;;;;;5091077;28;20502;-63
2023/04/02 04:54:19;;;;;;;5.85;4.70;;;2.30;99.90;;;;;;5092078;28;20051;-63
2023/04/02 04:56:59;;;;;;;5.63;4.22;;;2.40;99.90;;;;;;5091971;28;20048;-63
2023/04/02 05:00:10;;;;;;;5.90;4.07;;;2.40;99.90;;;;;;5091611;28;20090;-63
2023/04/02 05:02:47;;;;;;;4.97;3.45;;;2.40;99.90;;;;;;5091296;28;20102;-63
2023/04/02 05:05:20;;;;;;;5.47;4.07;;;2.30;99.90;;;;;;5092122;28;20040;-62
2023/04/02 05:07:59;;;;;;;5.63;3.60;;;2.30;99.90;;;;;;5091608;28;20376;-63
2023/04/02 05:11:08;;;;;;;4.70;3.67;;;2.20;99.90;;;;;;5091007;28;21194;-63
2023/04/02 05:13:55;;;;;;;7.07;4.15;;;2.30;99.90;;;;;;5073913;28;20070;-63
2023/04/02 05:16:38;;;;;;;5.72;3.83;;;2.30;99.90;;;;;;5091136;28;20072;-62
2023/04/02 05:19:38;;;;;;;5.65;3.22;;;2.20;99.90;;;;;;5091668;28;20051;-62
2023/04/02 05:22:35;;;;;;;6.45;3.65;;;2.20;99.90;;;;;;5072582;28;20048;-62
2023/04/02 05:25:19;;;;;;;4.95;3.42;;;2.10;99.90;;;;;;5091447;28;20363;-62
2023/04/02 05:28:04;;;;;;;;;;;2.10;99.90;;;;;;5092242;28;20058;-62
2023/04/02 05:30:37;;;;;;;4.72;3.42;;;2.20;99.90;;;;;;5090929;28;20236;-63
2023/04/02 05:33:26;;;;;;;6.90;3.88;;;2.20;99.90;;;;;;5091601;28;20095;-62
2023/04/02 05:35:59;;;;;;;4.00;2.88;;;2.20;99.90;;;;;;5091501;28;20084;-63
2023/04/02 05:38:40;;;;;;;8.52;4.53;;;2.20;99.90;;;;;;5091566;28;20082;-62
2023/04/02 05:41:38;;;;;;;8.27;3.92;;;2.20;99.90;;;;;;5074449;28;20095;-63
2023/04/02 05:44:14;;;;;;;7.40;3.42;;;2.20;99.90;;;;;;5091556;28;20048;-63
2023/04/02 05:46:56;;;;;;;7.78;3.67;;;2.20;99.90;;;;;;5091468;28;20101;-63
2023/04/02 05:49:45;;;;;;;5.28;3.38;;;2.30;99.90;;;;;;5091136;28;20040;-64
2023/04/02 05:52:16;;;;;;;6.90;3.72;;;2.20;99.90;;;;;;5091486;28;20554;-63
2023/04/02 05:54:55;;;;;;;4.00;2.80;;;2.30;99.90;;;;;;5091771;28;20086;-63
2023/04/02 05:57:36;;;;;;;4.40;3.20;;;2.20;99.90;;;;;;5091179;28;20052;-64
2023/04/02 06:00:07;;;;;;;4.18;3.63;;;2.30;99.90;;;;;;5091052;28;20059;-63
2023/04/02 06:02:52;;;;;;;4.85;2.92;;;2.30;99.90;;;;;;5090993;28;20087;-64
2023/04/02 06:05:29;;;;;;;6.57;3.63;;;2.30;99.90;;;;;;5091249;28;20080;-62
2023/04/02 06:08:05;;;;;;;4.65;2.78;;;2.40;99.90;;;;;;5074405;28;20511;-63
2023/04/02 06:10:42;;;;;;;6.15;3.42;;;2.40;99.90;;;;;;5090526;28;20104;-63
2023/04/02 06:13:14;;;;;;;4.75;2.75;;;2.40;99.90;;;;;;5094086;28;20484;-62
2023/04/02 06:15:41;;;;;;;7.82;2.65;;;2.40;99.90;;;;;;5077236;28;20199;-62
2023/04/02 06:18:15;;;;;;;6.88;3.95;;;2.40;99.90;;;;;;5076601;28;20052;-63
2023/04/02 06:20:48;;;;;;;5.72;3.80;;;2.50;99.90;;;;;;5094342;28;20055;-62
2023/04/02 06:23:43;;;;;;;5.22;2.85;;;2.40;99.90;;;;;;5094706;28;20089;-62
2023/04/02 06:26:31;;;;;;;6.20;3.22;;;2.50;99.90;;;;;;5083422;28;20427;-62
2023/04/02 06:29:24;;;;;;;5.90;2.95;;;2.50;99.90;;;;;;5094780;28;20054;-62
2023/04/02 06:31:55;;;;;;;6.97;3.03;;;2.50;99.90;;;;;;5092095;28;20044;-61
2023/04/02 06:34:24;;;;;;;3.97;3.00;;;2.60;99.90;;;;;;5091551;28;20079;-62
2023/04/02 06:37:04;;;;;;;4.20;3.10;;;2.60;99.90;;;;;;5094203;28;20063;-62
2023/04/02 06:39:32;;;;;;;5.13;2.63;;;2.70;99.90;;;;;;5090697;28;20040;-61
2023/04/02 06:42:06;;;;;;;4.28;2.83;;;2.70;99.90;;;;;;5091318;28;20036;-62
2023/04/02 06:44:36;;;;;;;5.70;2.70;;;2.80;99.90;;;;;;5093805;28;20079;-61
2023/04/02 06:47:30;;;;;;;5.85;3.08;;;2.70;99.90;;;;;;5092791;28;20054;-61
2023/04/02 06:50:04;;;;;;;4.57;2.25;;;2.70;99.90;;;;;;5073342;28;20084;-62
2023/04/02 06:52:45;;;;;;;6.03;2.90;;;2.70;99.90;;;;;;5071639;28;20101;-61
2023/04/02 06:55:43;;;;;;;4.40;2.80;;;2.80;99.90;;;;;;5091561;28;20043;-62
2023/04/02 06:58:09;;;;;;;5.85;2.42;;;2.90;99.90;;;;;;5072946;28;20499;-63
2023/04/02 07:00:43;;;;;;;5.75;2.97;;;2.90;99.90;;;;;;5093062;28;20079;-63
2023/04/02 07:03:28;;;;;;;7.35;3.53;;;3.00;99.90;;;;;;5072566;28;20044;-62
2023/04/02 07:05:55;;;;;;;6.03;2.83;;;2.90;99.90;;;;;;5092370;28;20139;-62
2023/04/02 07:08:22;;;;;;;7.20;2.63;;;3.00;99.90;;;;;;5093167;28;20048;-63
2023/04/02 07:10:49;;;;;;;4.10;3.05;;;3.20;99.90;;;;;;5089884;28;20695;-63
2023/04/02 07:13:18;;;;;;;6.53;3.47;;;3.20;99.90;;;;;;5092314;28;20052;-63
2023/04/02 07:15:46;;;;;;;6.35;2.97;;;3.30;99.90;;;;;;5075099;28;20421;-63
2023/04/02 07:18:31;;;;;;;5.43;3.00;;;3.50;99.90;;;;;;5075261;28;20052;-63
2023/04/02 07:20:58;;;;;;;4.82;3.17;;;3.60;99.90;;;;;;5089044;28;20499;-63
2023/04/02 07:23:24;;;;;;;5.07;3.33;;;3.70;99.90;;;;;;5091920;28;20379;-63
2023/04/02 07:26:01;;;;;;;10.25;3.42;;;3.80;99.90;;;;;;5073458;28;20044;-63
2023/04/02 07:28:30;;;;;;;4.90;2.50;;;3.80;99.90;;;;;;5075126;28;20058;-63
2023/04/02 07:30:57;;;;;;;4.35;2.42;;;3.90;99.90;;;;;;5074392;28;20240;-63
2023/04/02 07:33:30;;;;;;;4.18;2.80;;;3.90;99.90;;;;;;5092802;28;20048;-62
2023/04/02 07:35:57;;;;;;;5.60;2.80;;;3.80;99.90;;;;;;5074727;28;20095;-63
2023/04/02 07:38:24;;;;;;;4.22;2.53;;;3.70;99.90;;;;;;5074593;28;20116;-63
2023/04/02 07:40:52;;;;;;;4.50;2.13;;;3.80;99.90;;;;;;5057710;28;20357;-63
2023/04/02 07:43:20;;;;;;;5.43;2.20;;;4.00;99.90;;;;;;5092245;28;20115;-63
2023/04/02 07:45:48;;;;;;;3.08;2.10;;;4.10;99.90;;;;;;5092784;28;20254;-62
2023/04/02 07:48:15;;;;;;;4.72;2.10;;;4.10;99.90;;;;;;5072284;28;20039;-63
2023/04/02 07:50:42;;;;;;;4.35;2.13;;;4.20;99.90;;;;;;5091822;28;20047;-63
2023/04/02 07:53:37;;;;;;;5.18;2.42;;;4.30;99.90;;;;;;5073773;28;20087;-63
2023/04/02 07:56:04;;;;;;;5.13;2.22;;;4.30;99.90;;;;;;5075563;28;20044;-63
2023/04/02 07:58:32;;;;;;;3.60;2.30;;;4.50;99.90;;;;;;5092255;28;20058;-62
2023/04/02 08:01:00;;;;;;;6.57;2.35;;;4.50;99.90;;;;;;5091492;28;20090;-63
2023/04/02 08:03:26;;;;;;;4.20;2.05;;;4.40;99.90;;;;;;5092776;28;20044;-61
2023/04/02 08:05:59;;;;;;;5.85;2.45;;;4.40;99.90;;;;;;5093183;28;20076;-62
2023/04/02 08:08:25;;;;;;;4.72;2.22;;;4.40;99.90;;;;;;5092543;28;20448;-62
2023/04/02 08:10:51;;;;;;;4.07;2.47;;;4.50;99.90;;;;;;5091893;28;20440;-61
2023/04/02 08:13:21;;;;;;;5.90;2.47;;;4.60;99.90;;;;;;5074881;28;20044;-63
2023/04/02 08:15:47;;;;;;;5.47;2.45;;;4.60;99.90;;;;;;5092411;28;20079;-61
2023/04/02 08:18:20;;;;;;;4.43;2.00;;;4.70;99.90;;;;;;5092735;28;20059;-62
2023/04/02 08:20:46;;;;;;;7.43;2.47;;;4.70;99.90;;;;;;5091814;28;20428;-62
2023/04/02 08:23:21;;;;;;;6.35;2.38;;;4.70;99.90;;;;;;5092440;28;20048;-62
2023/04/02 08:25:49;;;;;;;5.43;2.45;;;4.80;99.90;;;;;;5091856;28;20110;-63
2023/04/02 08:28:16;;;;;;;5.60;2.50;;;4.90;99.90;;;;;;5091831;28;20126;-62
2023/04/02 08:30:43;;;;;;;5.13;2.30;;;4.90;99.90;;;;;;5091150;28;20064;-63
2023/04/02 08:33:09;;;;;;;6.13;2.10;;;4.90;99.90;;;;;;5092433;28;20052;-62
2023/04/02 08:35:35;;;;;;;4.93;2.20;;;4.80;99.90;;;;;;5092204;28;20083;-63
2023/04/02 08:38:14;;;;;;;4.50;1.75;;;4.80;99.90;;;;;;5092158;28;20078;-63
2023/04/02 08:40:49;;;;;;;4.38;2.08;;;4.90;99.90;;;;;;5091437;28;20115;-62
2023/04/02 08:43:32;;;;;;;5.18;2.35;;;4.90;99.90;;;;;;5091843;28;20490;-62
2023/04/02 08:46:20;;;;;;;3.42;2.03;;;5.10;99.90;;;;;;5092076;28;20044;-63
2023/04/02 08:48:54;;;;;;;4.53;1.88;;;5.20;99.90;;;;;;5092100;28;20124;-62
2023/04/02 08:51:30;;;;;;;5.68;1.92;;;5.20;99.90;;;;;;5091779;28;20071;-62
2023/04/02 08:54:11;;;;;;;5.13;2.10;;;5.30;99.90;;;;;;5091841;28;20048;-59
2023/04/02 08:56:55;;;;;;;8.02;2.22;;;5.40;99.90;;;;;;5092288;28;20114;-61
2023/04/02 08:59:38;;;;;;;3.50;1.90;;;5.60;99.90;;;;;;5074858;28;20048;-62
2023/04/02 09:02:26;;;;;;;6.45;1.95;;;5.80;99.90;;;;;;5091355;28;20056;-62
2023/04/02 09:04:57;;;;;;;4.03;2.00;;;5.90;99.90;;;;;;5091858;28;20056;-62
2023/04/02 09:07:25;;;;;;;5.70;2.40;;;5.90;99.90;;;;;;5091097;28;20070;-61
2023/04/02 09:09:51;;;;;;;4.35;2.08;;;5.90;99.90;;;;;;5091320;28;20048;-62
2023/04/02 09:12:20;;;;;;;3.33;1.63;;;5.90;99.90;;;;;;5091445;28;20071;-61
2023/04/02 09:15:06;;;;;;;4.05;1.90;;;5.80;99.90;;;;;;5091202;28;20080;-62
2023/04/02 09:17:33;;;;;;;6.80;1.83;;;5.80;99.90;;;;;;5091243;28;20059;-62
2023/04/02 09:20:16;;;;;;;3.25;1.73;;;5.90;99.90;;;;;;5089494;28;20062;-61
2023/04/02 09:22:49;;;;;;;3.17;1.50;;;6.00;99.90;;;;;;5089245;28;20048;-63
2023/04/02 09:25:22;;;;;;;2.97;1.70;;;6.00;99.90;;;;;;5090277;28;20066;-63
2023/04/02 09:27:58;;;;;;;4.10;2.42;;;6.00;99.90;;;;;;5090381;28;20557;-62
2023/04/02 09:30:30;;;;;;;3.60;1.50;;;6.10;99.90;;;;;;5089427;28;20063;-62
2023/04/02 09:33:07;;;;;;;;;;;6.20;99.90;;;;;;5089730;28;20105;-63
2023/04/02 09:35:52;;;;;;;3.92;2.40;;;6.40;99.90;;;;;;5088629;28;20383;-63
2023/04/02 09:38:18;;;;;;;4.47;1.67;;;6.50;99.90;;;;;;5071463;28;20048;-62
2023/04/02 09:40:53;;;;;;;3.67;1.85;;;6.50;99.90;;;;;;5090299;28;20455;-62
2023/04/02 09:43:23;;;;;;;4.30;2.30;;;6.50;99.90;;;;;;5088521;28;20040;-62
2023/04/02 09:46:00;;;;;;;4.03;2.05;;;6.60;99.90;;;;;;5091284;28;20044;-62
2023/04/02 09:48:42;;;;;;;4.05;1.83;;;6.60;99.90;;;;;;5092513;28;20071;-62
2023/04/02 09:51:11;;;;;;;2.95;1.70;;;6.70;99.90;;;;;;5093272;28;20044;-63
2023/04/02 09:53:39;;;;;;;3.42;1.85;;;6.80;99.90;;;;;;5094280;28;20048;-61
2023/04/02 09:56:23;;;;;;;4.40;2.15;;;7.00;99.90;;;;;;5094798;28;20118;-62
2023/04/02 09:59:13;;;;;;;5.43;2.20;;;6.90;99.90;;;;;;5092788;28;20080;-62
2023/04/02 10:01:53;;;;;;;5.45;2.25;;;7.00;99.90;;;;;;5094321;28;20043;-63
2023/04/02 10:05:02;;;;;;;2.80;1.95;;;7.00;99.90;;;;;;5094673;28;20139;-63
2023/04/02 10:07:42;;;;;;;3.80;2.25;;;7.00;99.90;;;;;;5032026;28;20433;-61
2023/04/02 10:10:25;;;;;;;3.67;1.75;;;7.00;99.90;;;;;;5032827;28;20506;-61
2023/04/02 10:13:30;;;;;;;3.13;1.67;;;7.10;99.90;;;;;;5068726;28;20044;-62
2023/04/02 10:16:02;;;;;;;3.80;1.73;;;7.10;99.90;;;;;;5094085;28;20048;-62
2023/04/02 10:18:47;;;;;;;5.07;1.92;;;7.20;99.90;;;;;;5094075;28;20542;-61
2023/04/02 10:21:35;;;;;;;3.05;2.30;;;7.20;99.90;;;;;;5093295;28;20123;-63
2023/04/02 10:24:13;;;;;;;4.53;2.08;;;7.20;99.90;;;;;;5094591;28;20154;-61
2023/04/02 10:27:03;;;;;;;4.53;2.10;;;7.30;99.90;;;;;;5094129;28;20048;-61
2023/04/02 10:29:45;;;;;;;4.15;2.15;;;7.30;99.90;;;;;;5092432;28;20109;-64
2023/04/02 10:32:37;;;;;;;3.92;1.90;;;7.40;99.90;;;;;;5092688;28;20444;-62
2023/04/02 10:35:22;;;;;;;4.40;1.80;;;7.40;99.90;;;;;;5091527;28;20067;-64
2023/04/02 10:38:01;;;;;;;5.43;2.30;;;7.50;99.90;;;;;;5092349;28;20090;-63
2023/04/02 10:40:49;;;;;;;5.32;1.92;;;7.70;99.90;;;;;;5093873;28;20051;-62
2023/04/02 10:43:29;;;;;;;3.78;2.17;;;7.70;99.90;;;;;;5094394;28;20435;-65
2023/04/02 10:46:05;;;;;;;4.25;2.10;;;7.70;99.90;;;;;;5094226;28;20082;-62
2023/04/02 10:48:51;;;;;;;6.05;2.13;;;7.70;99.90;;;;;;5093852;28;20036;-62
2023/04/02 10:51:37;;;;;;;3.72;1.60;;;7.80;99.90;;;;;;5093656;28;20323;-62
2023/04/02 10:54:26;;;;;;;4.80;1.65;;;8.00;99.90;;;;;;5091081;28;20517;-61
2023/04/02 10:57:39;;;;;;;5.53;2.13;;;8.10;99.90;;;;;;5092258;28;20040;-63
2023/04/02 11:00:14;;;;;;;5.38;1.92;;;8.10;99.90;;;;;;5090119;28;20074;-62
2023/04/02 11:03:10;;;;;;;2.30;1.80;;;8.30;99.90;;;;;;5093138;28;20040;-62
2023/04/02 11:05:47;;;;;;;4.47;2.00;;;8.30;99.90;;;;;;5082514;28;20048;-62
2023/04/02 11:08:26;;;;;;;5.93;1.92;;;8.30;99.90;;;;;;5092189;28;20050;-62
2023/04/02 11:11:04;;;;;;;3.65;1.58;;;8.30;99.90;;;;;;5078410;28;20040;-63
2023/04/02 11:13:43;;;;;;;2.85;1.73;;;8.40;99.90;;;;;;5093431;28;20052;-62
2023/04/02 11:16:20;;;;;;;4.05;1.80;;;8.60;99.90;;;;;;5093432;28;20087;-63
2023/04/02 11:19:08;;;;;;;3.95;1.80;;;8.60;99.90;;;;;;5092692;28;20105;-62
2023/04/02 11:21:39;;;;;;;4.40;1.80;;;8.70;99.90;;;;;;5092264;28;20063;-62
2023/04/02 11:24:29;;;;;;;5.07;2.28;;;8.70;99.90;;;;;;5093161;28;20068;-63
2023/04/02 11:27:10;;;;;;;3.92;1.73;;;8.80;99.90;;;;;;5090095;28;20078;-62
2023/04/02 11:29:42;;;;;;;3.15;1.60;;;8.90;99.90;;;;;;5072371;28;20119;-62
2023/04/02 11:32:13;;;;;;;;;;;8.90;99.90;;;;;;5093602;28;20083;-61
2023/04/02 11:34:48;;;;;;;3.78;1.92;;;8.90;99.90;;;;;;5092722;28;20367;-62
2023/04/02 11:37:36;;;;;;;5.28;1.75;;;8.90;99.90;;;;;;5090939;28;20079;-63
2023/04/02 11:40:22;;;;;;;4.30;2.00;;;9.00;99.90;;;;;;5091532;28;20048;-62
2023/04/02 11:42:55;;;;;;;2.90;2.05;;;9.00;99.90;;;;;;5092804;28;20079;-63
2023/04/02 11:45:26;;;;;;;3.78;2.10;;;9.10;99.90;;;;;;5093143;28;20443;-63
2023/04/02 11:48:07;;;;;;;4.88;1.73;;;9.20;99.90;;;;;;5093158;28;20079;-62
2023/04/02 11:50:36;;;;;;;3.88;1.50;;;9.10;99.90;;;;;;5092250;28;20181;-62
2023/04/02 11:53:10;;;;;;;3.92;1.80;;;9.30;99.90;;;;;;5072750;28;20048;-63
2023/04/02 11:55:42;;;;;;;5.10;1.80;;;9.30;99.90;;;;;;5072688;28;20048;-63
2023/04/02 11:58:29;;;;;;;3.47;1.42;;;9.50;99.90;;;;;;5054989;28;20052;-62
2023/04/02 12:01:07;;;;;;;3.33;1.77;;;9.40;99.90;;;;;;5076275;28;20043;-62
2023/04/02 12:03:37;;;;;;;4.30;1.92;;;9.40;99.90;;;;;;5092773;28;20048;-63
2023/04/02 12:06:30;;;;;;;4.38;1.77;;;9.50;99.90;;;;;;5075050;28;20117;-64
2023/04/02 12:09:04;;;;;;;4.43;1.52;;;9.50;99.90;;;;;;5091607;28;20131;-63
2023/04/02 12:11:39;;;;;;;4.07;2.00;;;9.40;99.90;;;;;;5092378;28;20036;-63
2023/04/02 12:14:28;;;;;;;3.00;1.55;;;9.50;99.90;;;;;;5074818;28;20102;-63
2023/04/02 12:16:56;;;;;;;3.28;1.50;;;9.40;99.90;;;;;;5092641;28;20437;-62
2023/04/02 12:19:24;;;;;;;4.35;1.70;;;9.30;99.90;;;;;;5092131;28;20060;-63
2023/04/02 12:21:52;;;;;;;4.60;1.92;;;9.20;99.90;;;;;;5092043;28;20476;-62
2023/04/02 12:24:23;;;;;;;5.90;2.03;;;9.30;99.90;;;;;;5057864;28;20217;-63
2023/04/02 12:27:14;;;;;;;3.72;1.90;;;9.30;99.90;;;;;;5092180;28;20105;-62
2023/04/02 12:29:40;;;;;;;3.47;1.85;;;9.40;99.90;;;;;;5080126;28;20040;-62
2023/04/02 12:32:36;;;;;;;4.30;1.80;;;9.40;99.90;;;;;;5091597;28;20101;-62
2023/04/02 12:35:05;;;;;;;4.28;1.80;;;9.60;99.90;;;;;;5062425;28;20456;-63
2023/04/02 12:37:33;;;;;;;3.50;1.83;;;9.60;99.90;;;;;;5089127;28;20259;-64
2023/04/02 12:40:05;;;;;;;3.53;2.30;;;9.70;99.90;;;;;;5091316;28;20533;-62
2023/04/02 12:42:34;;;;;;;4.68;1.70;;;9.70;99.90;;;;;;5088485;28;20048;-63
2023/04/02 12:45:01;;;;;;;5.78;1.77;;;9.80;99.90;;;;;;5091797;28;20040;-63
2023/04/02 12:47:28;;;;;;;4.65;1.70;;;9.90;99.90;;;;;;5091738;28;20111;-62
2023/04/02 12:49:57;;;;;;;3.65;1.80;;;9.90;99.90;;;;;;5091689;28;20090;-62
2023/04/02 12:52:27;;;;;;;6.70;1.70;;;9.90;99.90;;;;;;5091994;28;20435;-63
2023/04/02 12:55:01;;;;;;;4.70;1.60;;;9.90;99.90;;;;;;5092360;28;20136;-62
2023/04/02 12:57:27;;;;;;;3.22;1.50;;;10.00;99.90;;;;;;5092160;28;20105;-63
2023/04/02 12:59:56;;;;;;;3.80;1.52;;;10.10;99.90;;;;;;5091695;28;20047;-63
2023/04/02 13:02:32;;;;;;;2.20;1.17;;;10.10;99.90;;;;;;5091648;28;20055;-64
2023/04/02 13:05:00;;;;;;;3.28;1.52;;;10.10;99.90;;;;;;5091994;28;20106;-62
2023/04/02 13:07:29;;;;;;;2.65;1.63;;;10.20;99.90;;;;;;5091873;28;20044;-63
2023/04/02 13:09:59;;;;;;;4.57;1.88;;;10.20;99.90;;;;;;5091345;28;20039;-63
2023/04/02 13:12:41;;;;;;;4.80;2.58;;;10.30;99.90;;;;;;5091770;28;20042;-63
2023/04/02 13:15:21;;;;;;;3.17;1.33;;;10.20;99.90;;;;;;5098318;28;20048;-64
2023/04/02 13:18:03;;;;;;;4.78;2.10;;;10.20;99.90;;;;;;5087009;28;20043;-63
2023/04/02 13:20:30;;;;;;;3.63;1.90;;;10.30;99.90;;;;;;5098297;28;20426;-62
2023/04/02 13:22:58;;;;;;;3.85;1.70;;;10.20;99.90;;;;;;5102908;28;20044;-63
2023/04/02 13:25:33;;;;;;;4.70;1.60;;;10.20;99.90;;;;;;5097847;28;20044;-63
2023/04/02 13:28:00;;;;;;;3.95;1.80;;;10.30;99.90;;;;;;5104829;28;20043;-63
2023/04/02 13:30:28;;;;;;;3.17;1.60;;;10.30;99.90;;;;;;5104104;28;20044;-63
2023/04/02 13:32:55;;;;;;;5.22;2.00;;;10.20;99.90;;;;;;5100444;28;20044;-62
2023/04/02 13:35:21;;;;;;;5.03;2.55;;;10.20;99.90;;;;;;5095249;28;20047;-63
2023/04/02 13:37:47;;;;;;;4.80;2.47;;;10.10;99.90;;;;;;5095569;28;20040;-63
2023/04/02 13:40:16;;;;;;;3.80;1.70;;;10.20;99.90;;;;;;5095202;28;20044;-63
2023/04/02 13:42:46;;;;;;;3.88;1.52;;;10.20;99.90;;;;;;5090622;28;20040;-62
2023/04/02 13:45:26;;;;;;;3.97;2.45;;;10.30;99.90;;;;;;5095696;28;20145;-63
2023/04/02 13:47:53;;;;;;;3.70;1.90;;;10.30;99.90;;;;;;5094786;28;20056;-62
2023/04/02 13:50:23;;;;;;;2.38;1.50;;;10.40;99.90;;;;;;5076434;28;20048;-62